Azle, TX

10:00 PM CST on December 22, 2014 (GMT -0600)
South of 199 | Change Station
CLOSE
Current Station
Personal Weather Station
Location: Sanctuary, TX
Elevation: 800 ft
Nearby Weather Stations

Elev 800 ft 32.91 °N, 97.59 °W | Updated 4 seconds ago

Mostly Cloudy
Mostly Cloudy
47.0 °F
Feels Like 47 °F
N
0.0
Wind Variable Wind from North
Gusts 1.0 mph

Today
High -- | Low -- °F
--% Chance of Precip.
Yesterday
High -- | Low -- °F
Precip. -- in
7:29 AM 5:28 PM
New Moon, 2% visible
Pressure 29.68 in
Visibility 10.0 miles
Clouds Scattered Clouds 15000 ft
Windchill 47 °F
Dew Point 41 °F
Humidity 79%
Rainfall 0.00 in
Snow Depth Not available.
UV 0 out of 12
Pollen 11.20 out of 12
Air Quality Not available.
Flu Activity Not available.
METAR KNFW 230352Z 00000KT 10SM SCT150 13/05 A2973 RMK AO2 SLP051 T01330050

More Conditions Fewer Conditions

Pressure 29.68 in
Visibility 10.0 miles
Clouds Scattered Clouds 15000 ft
Windchill 47 °F
Dew Point 41 °F
Humidity 79%
Rainfall 0.00 in
Snow Depth Not available.
UV 0 out of 12
Pollen 11.20 out of 12
Air Quality Not available.
Flu Activity Not available.
METAR KNFW 230352Z 00000KT 10SM SCT150 13/05 A2973 RMK AO2 SLP051 T01330050

More Conditions Fewer Conditions

Nowcast | as of 9:56 PM CST on December 22, 2014

An area of mostly light rain...occurring west of a Mineral Wells to Nocona line at 10 PM...will spread east along and north of I-20 to a Sherman to McKinney line by 2 am. Only light rainfall is expected with amounts generally several hundredths of an inch over 2 or 3 hours.

×

10-Day Weather Forecast

Almanac

Astronomy

Dec. 22, 2014 Rise Set
Actual Time
Civil Twilight
Nautical Twilight
Astronomical Twilight
Moon
Length of Visible Light
Length of Day
Tomorrow will be .
, % of the Moon is Illuminated

Today's Extremes

State Highs State Lows

Community

WunderPhotos

Upload Photos

1,779,775 photos uploaded!

WunderBlogs® & News

Nearby

Air Quality

  Air Quality AQ Index Pollutant
Not available.

Snow Depth

Station Depth Elevation

Earthquake Activity

City Distance Mag. Time & Date
Minimum magnitude displayed is 2.5.

Coastal Water Temperatures

Place Temperature

Nearby Weather Stations